Time;durP1;ratioP1;P1;durP2;ratioP2;P2;SDS_P1;SDS_P2;PMS_P1;PMS_P2;Temp;Humidity;BMP_temperature;BMP_pressure;BME280_temperature;BME280_humidity;BME280_pressure;Samples;Min_cycle;Max_cycle;Signal;HPM_P1;HPM_P2
2023/01/15 00:01:26;;;;;;;5.90;1.58;;;6.00;99.90;;;;;;5017061;28;20088;-89
2023/01/15 00:03:54;;;;;;;9.70;1.90;;;6.20;99.90;;;;;;5030083;28;20063;-87
2023/01/15 00:06:21;;;;;;;9.95;1.20;;;6.20;99.90;;;;;;5048036;28;20048;-87
2023/01/15 00:08:47;;;;;;;12.95;1.50;;;6.10;99.90;;;;;;5011419;28;20037;-88
2023/01/15 00:11:13;;;;;;;13.93;2.28;;;5.80;99.90;;;;;;5045764;28;20400;-84
2023/01/15 00:13:42;;;;;;;8.35;1.48;;;6.10;99.90;;;;;;5007756;28;20047;-86
2023/01/15 00:16:20;;;;;;;14.23;1.60;;;6.10;99.90;;;;;;5025200;28;20036;-88
2023/01/15 00:18:50;;;;;;;10.57;1.40;;;6.10;99.90;;;;;;5002776;28;20054;-86
2023/01/15 00:21:17;;;;;;;7.65;1.17;;;7.00;99.90;;;;;;5008841;28;20500;-89
2023/01/15 00:29:14;;;;;;;9.40;1.63;;;7.20;99.90;;;;;;5041711;28;20048;-90
2023/01/15 00:31:40;;;;;;;9.82;2.05;;;6.10;99.90;;;;;;5011319;28;20056;-89
2023/01/15 00:34:06;;;;;;;12.98;1.30;;;7.30;99.90;;;;;;5013781;28;20577;-90
2023/01/15 00:36:33;;;;;;;12.50;1.70;;;6.10;99.90;;;;;;5029456;28;20044;-85
2023/01/15 00:38:59;;;;;;;11.02;1.55;;;6.10;99.90;;;;;;5031172;28;20048;-89
2023/01/15 00:41:25;;;;;;;9.10;1.73;;;7.00;99.90;;;;;;5030385;28;20044;-88
2023/01/15 00:43:51;;;;;;;16.63;1.90;;;6.20;99.90;;;;;;5031872;28;20047;-86
2023/01/15 00:46:18;;;;;;;10.75;2.03;;;6.10;99.90;;;;;;5022491;28;20040;-85
2023/01/15 00:48:44;;;;;;;15.93;2.60;;;7.40;99.90;;;;;;5038726;28;20560;-87
2023/01/15 00:51:09;;;;;;;11.77;1.50;;;6.20;99.90;;;;;;5037315;28;20132;-89
2023/01/15 00:53:38;;;;;;;13.13;2.10;;;6.10;99.90;;;;;;5029573;28;20063;-90
2023/01/15 00:56:04;;;;;;;12.98;2.38;;;6.10;99.90;;;;;;5032215;28;20477;-90
2023/01/15 00:58:30;;;;;;;14.57;1.80;;;6.10;99.90;;;;;;5006257;28;20041;-89
2023/01/15 01:00:59;;;;;;;14.55;1.60;;;6.00;99.90;;;;;;5036890;28;20128;-87
2023/01/15 01:03:27;;;;;;;12.40;1.95;;;6.10;99.90;;;;;;5048184;28;20146;-90
2023/01/15 01:05:53;;;;;;;13.52;2.05;;;5.70;99.90;;;;;;5009406;28;20076;-89
2023/01/15 01:08:19;;;;;;;9.50;1.52;;;6.20;99.90;;;;;;5038864;28;20065;-88
2023/01/15 01:10:45;;;;;;;13.60;1.85;;;8.20;99.90;;;;;;5023343;28;20084;-88
2023/01/15 01:13:11;;;;;;;14.40;3.65;;;7.80;99.90;;;;;;5006369;28;20080;-90
2023/01/15 01:15:37;;;;;;;13.82;2.45;;;8.00;99.90;;;;;;5040433;28;20045;-88
2023/01/15 01:18:04;;;;;;;13.52;2.33;;;6.10;99.90;;;;;;5048530;28;20037;-84
2023/01/15 01:20:31;;;;;;;22.80;2.22;;;6.40;99.90;;;;;;5035034;28;20057;-87
2023/01/15 01:22:57;;;;;;;11.50;1.45;;;7.20;99.90;;;;;;5031752;28;20048;-88
2023/01/15 01:25:23;;;;;;;12.60;2.13;;;7.10;99.90;;;;;;5047391;28;20055;-86
2023/01/15 01:27:49;;;;;;;15.80;2.67;;;5.90;99.90;;;;;;5017570;28;20041;-89
2023/01/15 01:30:16;;;;;;;11.27;2.05;;;6.60;99.90;;;;;;5057294;28;20052;-88
2023/01/15 01:32:44;;;;;;;12.25;1.58;;;5.90;99.90;;;;;;5047825;28;20055;-85
2023/01/15 01:35:10;;;;;;;12.30;2.58;;;6.10;99.90;;;;;;5059516;28;20045;-88
2023/01/15 01:37:36;;;;;;;20.75;3.00;;;6.10;99.90;;;;;;5031028;28;20060;-88
2023/01/15 01:40:03;;;;;;;14.98;1.83;;;6.60;99.90;;;;;;5048552;28;20033;-83
2023/01/15 01:42:31;;;;;;;10.98;1.60;;;6.10;99.90;;;;;;5028759;28;20095;-85
2023/01/15 01:45:19;;;;;;;10.93;1.85;;;7.10;99.90;;;;;;5011105;28;20558;-86
2023/01/15 01:47:45;;;;;;;19.02;1.85;;;6.10;99.90;;;;;;4993574;28;20099;-88
2023/01/15 01:50:13;;;;;;;15.88;1.90;;;8.20;99.90;;;;;;5046124;28;20045;-89
2023/01/15 01:52:46;;;;;;;12.32;1.80;;;6.10;99.90;;;;;;5026247;28;20045;-88
2023/01/15 01:55:14;;;;;;;9.30;1.23;;;6.10;99.90;;;;;;5045000;28;20037;-87
2023/01/15 01:57:41;;;;;;;12.10;1.92;;;6.10;99.90;;;;;;5024692;28;20114;-86
2023/01/15 02:00:10;;;;;;;16.27;1.85;;;6.10;99.90;;;;;;5047572;28;20079;-84
2023/01/15 02:02:37;;;;;;;10.70;2.15;;;6.10;99.90;;;;;;5029193;28;20080;-85
2023/01/15 02:05:04;;;;;;;13.40;1.95;;;6.00;99.90;;;;;;5025996;28;20029;-87
2023/01/15 02:07:32;;;;;;;11.80;2.30;;;6.10;99.90;;;;;;5011866;28;20070;-87
2023/01/15 02:09:58;;;;;;;10.60;2.22;;;6.00;99.90;;;;;;5028580;28;20114;-85
2023/01/15 02:12:30;;;;;;;12.05;1.77;;;6.30;99.90;;;;;;5029556;28;20549;-84
2023/01/15 02:15:17;;;;;;;12.50;2.00;;;5.90;99.90;;;;;;5013312;28;20155;-86
2023/01/15 02:18:05;;;;;;;17.92;2.40;;;6.00;99.90;;;;;;5024334;28;20033;-88
2023/01/15 02:20:44;;;;;;;19.40;3.03;;;6.00;99.90;;;;;;5046784;28;20630;-85
2023/01/15 02:23:35;;;;;;;12.80;1.75;;;6.00;99.90;;;;;;5012820;28;20726;-85
2023/01/15 02:26:22;;;;;;;8.77;1.83;;;6.00;99.90;;;;;;5022648;28;20045;-87
2023/01/15 02:28:50;;;;;;;8.60;1.13;;;6.00;99.90;;;;;;5027244;28;20037;-87
2023/01/15 02:31:36;;;;;;;13.38;2.00;;;6.60;99.90;;;;;;5011116;28;20052;-88
2023/01/15 02:34:09;;;;;;;11.25;1.70;;;5.90;99.90;;;;;;5041714;28;20081;-88
2023/01/15 02:36:39;;;;;;;19.42;2.47;;;7.80;99.90;;;;;;5029150;28;20546;-89
2023/01/15 02:39:11;;;;;;;19.00;2.28;;;5.90;99.90;;;;;;5029245;28;20503;-84
2023/01/15 02:41:46;;;;;;;12.95;1.80;;;5.90;99.90;;;;;;5029735;28;20053;-89
2023/01/15 02:44:15;;;;;;;13.93;2.10;;;5.80;99.90;;;;;;5015608;28;20450;-87
2023/01/15 02:46:43;;;;;;;16.42;2.30;;;6.90;99.90;;;;;;5045501;28;20037;-85
2023/01/15 02:49:13;;;;;;;13.93;2.28;;;5.80;99.90;;;;;;5039656;28;20128;-85
2023/01/15 02:51:54;;;;;;;13.63;2.00;;;7.50;99.90;;;;;;5017277;28;20507;-86
2023/01/15 02:54:22;;;;;;;11.02;1.80;;;6.00;99.90;;;;;;5037924;28;20524;-86
2023/01/15 02:56:48;;;;;;;12.35;1.50;;;7.50;99.90;;;;;;5024491;28;20542;-87
2023/01/15 02:59:26;;;;;;;14.98;1.77;;;6.00;99.90;;;;;;5012005;28;20041;-85
2023/01/15 03:02:01;;;;;;;9.70;1.25;;;6.00;99.90;;;;;;5025098;28;20124;-87
2023/01/15 03:04:29;;;;;;;19.10;2.75;;;6.10;99.90;;;;;;5040655;28;20457;-86
2023/01/15 03:07:07;;;;;;;16.02;1.88;;;7.00;99.90;;;;;;5044789;28;20045;-84
2023/01/15 03:09:33;;;;;;;15.13;2.42;;;5.70;99.90;;;;;;5048622;28;20087;-85
2023/01/15 03:12:05;;;;;;;13.93;2.90;;;7.40;99.90;;;;;;5016140;28;20044;-85
2023/01/15 03:14:42;;;;;;;12.73;2.25;;;5.90;99.90;;;;;;5030050;28;20064;-84
2023/01/15 03:17:18;;;;;;;11.90;1.65;;;6.00;99.90;;;;;;5027447;28;20179;-85
2023/01/15 03:19:56;;;;;;;20.70;2.97;;;7.50;99.90;;;;;;5039547;28;20530;-86
2023/01/15 03:22:30;;;;;;;7.57;2.03;;;6.00;99.90;;;;;;5030930;28;20476;-86
2023/01/15 03:25:05;;;;;;;17.80;2.23;;;7.70;99.90;;;;;;5024601;28;20037;-85
2023/01/15 03:27:31;;;;;;;15.23;1.83;;;5.90;99.90;;;;;;5037980;28;20515;-85
2023/01/15 03:30:03;;;;;;;14.55;2.15;;;7.80;99.90;;;;;;5033171;28;20064;-86
2023/01/15 03:32:30;;;;;;;11.77;1.70;;;6.10;99.90;;;;;;5031992;28;20124;-86
2023/01/15 03:34:57;;;;;;;12.18;2.03;;;5.80;99.90;;;;;;5030368;28;20179;-85
2023/01/15 03:37:26;;;;;;;15.18;3.13;;;7.00;99.90;;;;;;5015393;28;20078;-86
2023/01/15 03:39:54;;;;;;;13.38;1.80;;;6.00;99.90;;;;;;5024955;28;20872;-85
2023/01/15 03:42:27;;;;;;;8.52;1.60;;;6.00;99.90;;;;;;5050221;28;20037;-86
2023/01/15 03:45:10;;;;;;;13.82;2.33;;;6.00;99.90;;;;;;5031909;28;20056;-86
2023/01/15 03:47:50;;;;;;;9.45;2.00;;;6.00;99.90;;;;;;5029778;28;20463;-85
2023/01/15 03:50:30;;;;;;;12.75;1.90;;;6.00;99.90;;;;;;5009171;28;20086;-86
2023/01/15 03:53:11;;;;;;;11.05;2.28;;;5.20;99.90;;;;;;5049739;28;20106;-84
2023/01/15 03:55:47;;;;;;;19.55;2.28;;;6.00;99.90;;;;;;5028340;28;20079;-87
2023/01/15 03:58:33;;;;;;;15.48;2.22;;;6.00;99.90;;;;;;5008389;28;20045;-84
2023/01/15 04:01:02;;;;;;;18.40;2.30;;;6.90;99.90;;;;;;5026592;28;20045;-84
2023/01/15 04:03:29;;;;;;;14.98;2.22;;;6.00;99.90;;;;;;5025350;28;20091;-83
2023/01/15 04:05:57;;;;;;;9.98;1.83;;;6.00;99.90;;;;;;5023722;28;20041;-83
2023/01/15 04:08:25;;;;;;;8.52;1.35;;;7.10;99.90;;;;;;5014163;28;20039;-82
2023/01/15 04:10:56;;;;;;;15.00;1.70;;;6.00;99.90;;;;;;5028094;28;20529;-83
2023/01/15 04:13:22;;;;;;;9.77;2.33;;;7.40;99.90;;;;;;5022413;28;20051;-83
2023/01/15 04:15:48;;;;;;;11.40;1.83;;;6.00;99.90;;;;;;5028965;28;20052;-83
2023/01/15 04:18:14;;;;;;;16.73;2.33;;;5.90;99.90;;;;;;5015091;28;20048;-83
2023/01/15 04:20:40;;;;;;;10.65;1.65;;;5.60;99.90;;;;;;5030703;28;20565;-83
2023/01/15 04:23:05;;;;;;;13.27;1.50;;;6.00;99.90;;;;;;5011113;28;20247;-83
2023/01/15 04:25:31;;;;;;;13.50;2.33;;;5.90;99.90;;;;;;5030496;28;20060;-83
2023/01/15 04:27:57;;;;;;;10.30;1.50;;;7.20;99.90;;;;;;5023319;28;20044;-83
2023/01/15 04:30:23;;;;;;;12.63;2.00;;;5.90;99.90;;;;;;5030374;28;20052;-83
2023/01/15 04:32:50;;;;;;;14.43;2.38;;;6.60;99.90;;;;;;5028696;28;20040;-84
2023/01/15 04:35:17;;;;;;;11.15;2.20;;;7.00;99.90;;;;;;5050005;28;20053;-83
2023/01/15 04:37:43;;;;;;;12.40;1.90;;;5.90;99.90;;;;;;5047159;28;20045;-83
2023/01/15 04:44:05;;;;;;;12.90;1.70;;;5.90;99.90;;;;;;5026759;28;20033;-83
2023/01/15 04:45:39;;;;;;;16.85;2.13;;;5.70;99.90;;;;;;5047332;28;20202;-83
2023/01/15 04:48:05;;;;;;;9.85;1.30;;;5.80;99.90;;;;;;5038369;28;20116;-83
2023/01/15 04:50:31;;;;;;;11.32;2.05;;;5.80;99.90;;;;;;5024581;28;20048;-83
2023/01/15 04:52:57;;;;;;;18.00;2.65;;;5.80;99.90;;;;;;5013270;28;20041;-83
2023/01/15 04:55:22;;;;;;;10.65;1.80;;;5.80;99.90;;;;;;5014082;28;20170;-83
2023/01/15 04:57:51;;;;;;;15.13;2.63;;;5.80;99.90;;;;;;5046882;28;20049;-83
2023/01/15 05:00:17;;;;;;;16.25;2.58;;;5.80;99.90;;;;;;5048223;28;20120;-83
2023/01/15 05:02:43;;;;;;;11.50;2.15;;;5.80;99.90;;;;;;5045943;28;20041;-83
2023/01/15 05:05:08;;;;;;;12.98;1.98;;;5.00;99.90;;;;;;5028752;28;20056;-83
2023/01/15 05:07:34;;;;;;;11.23;2.10;;;5.60;99.90;;;;;;5022440;28;20076;-83
2023/01/15 05:10:00;;;;;;;8.68;1.42;;;5.70;99.90;;;;;;5004003;28;20042;-83
2023/01/15 05:12:25;;;;;;;11.15;1.58;;;7.00;99.90;;;;;;5009554;28;20048;-83
2023/01/15 05:14:51;;;;;;;10.85;2.38;;;5.60;99.90;;;;;;5029244;28;20476;-83
2023/01/15 05:17:17;;;;;;;16.92;1.77;;;5.60;99.90;;;;;;5029337;28;20045;-83
2023/01/15 05:19:42;;;;;;;16.65;2.42;;;7.30;99.90;;;;;;5047168;28;20048;-82
2023/01/15 05:22:08;;;;;;;16.80;1.95;;;5.60;99.90;;;;;;5044758;28;20102;-83
2023/01/15 05:24:34;;;;;;;11.30;2.05;;;5.60;99.90;;;;;;5045418;28;20037;-83
2023/01/15 05:27:00;;;;;;;13.55;1.27;;;7.20;99.90;;;;;;5046929;28;20046;-83
2023/01/15 05:29:25;;;;;;;9.02;1.48;;;5.90;99.90;;;;;;5041478;28;20051;-82
2023/01/15 05:31:51;;;;;;;8.82;1.60;;;5.50;99.90;;;;;;5042286;28;20049;-83
2023/01/15 05:34:17;;;;;;;21.50;2.50;;;5.50;99.90;;;;;;5036606;28;20069;-83
2023/01/15 05:36:43;;;;;;;10.90;2.00;;;7.10;99.90;;;;;;5009879;28;20044;-83
2023/01/15 05:39:09;;;;;;;13.15;1.73;;;5.40;99.90;;;;;;5024365;28;20049;-83
2023/01/15 05:41:50;;;;;;;16.60;2.97;;;6.80;99.90;;;;;;5029543;28;20110;-83
2023/01/15 05:44:24;;;;;;;16.30;2.22;;;5.50;99.90;;;;;;5022336;28;20095;-83
2023/01/15 05:46:53;;;;;;;12.95;2.33;;;5.40;99.90;;;;;;5047229;28;20135;-83
2023/01/15 05:49:24;;;;;;;13.25;2.20;;;5.20;99.90;;;;;;5007276;28;20056;-83
2023/01/15 05:51:52;;;;;;;14.25;2.22;;;5.40;99.90;;;;;;5012233;28;20164;-83
2023/01/15 05:54:23;;;;;;;12.93;2.17;;;5.40;99.90;;;;;;5018628;28;20080;-83
2023/01/15 05:56:49;;;;;;;11.18;1.65;;;5.40;99.90;;;;;;5013595;28;20041;-83
2023/01/15 05:59:16;;;;;;;12.63;2.88;;;7.10;99.90;;;;;;5031215;28;20041;-82
2023/01/15 06:01:43;;;;;;;15.55;1.40;;;7.10;99.90;;;;;;5025800;28;20114;-83
2023/01/15 06:04:12;;;;;;;16.00;2.22;;;5.70;99.90;;;;;;5038839;28;20037;-83
2023/01/15 06:06:39;;;;;;;9.07;1.70;;;5.40;99.90;;;;;;5013350;28;20485;-83
2023/01/15 06:09:05;;;;;;;14.65;2.17;;;5.30;99.90;;;;;;5011939;28;20084;-83
2023/01/15 06:11:31;;;;;;;12.23;1.67;;;5.40;99.90;;;;;;5028034;28;20086;-83
2023/01/15 06:13:57;;;;;;;14.90;2.33;;;5.40;99.90;;;;;;5012254;28;20514;-83
2023/01/15 06:16:23;;;;;;;12.70;1.77;;;5.70;99.90;;;;;;5012543;28;20077;-83
2023/01/15 06:18:50;;;;;;;11.30;1.38;;;5.60;99.90;;;;;;5036449;28;20051;-83
2023/01/15 06:21:15;;;;;;;11.27;1.63;;;5.40;99.90;;;;;;5032008;28;20048;-83
2023/01/15 06:23:41;;;;;;;10.70;1.63;;;6.50;99.90;;;;;;5040502;28;20555;-83
2023/01/15 06:26:12;;;;;;;12.32;1.48;;;5.30;99.90;;;;;;5006405;28;20511;-81
2023/01/15 06:28:38;;;;;;;16.70;1.58;;;5.40;99.90;;;;;;5011310;28;20040;-82
2023/01/15 06:31:05;;;;;;;13.55;1.67;;;6.20;99.90;;;;;;5046590;28;21272;-83
2023/01/15 06:33:31;;;;;;;8.55;1.35;;;5.30;99.90;;;;;;5042298;28;20120;-85
2023/01/15 06:35:57;;;;;;;17.83;1.98;;;5.30;99.90;;;;;;5015855;28;21109;-82
2023/01/15 06:38:22;;;;;;;9.93;1.83;;;5.30;99.90;;;;;;5009353;28;20436;-83
2023/01/15 06:40:48;;;;;;;12.23;1.80;;;5.70;99.90;;;;;;5025850;28;20064;-84
2023/01/15 06:48:42;;;;;;;13.63;2.25;;;5.20;99.90;;;;;;5029200;28;20174;-83
2023/01/15 06:51:08;;;;;;;14.38;1.92;;;5.20;99.90;;;;;;5007000;28;20045;-83
2023/01/15 06:53:34;;;;;;;12.80;1.63;;;5.20;99.90;;;;;;5032416;28;20492;-83
2023/01/15 06:56:00;;;;;;;14.20;1.50;;;5.30;99.90;;;;;;5026707;28;20463;-83
2023/01/15 06:58:26;;;;;;;11.52;1.42;;;5.20;99.90;;;;;;5026797;28;20046;-83
2023/01/15 07:00:54;;;;;;;12.15;1.48;;;5.20;99.90;;;;;;4997216;28;20044;-83
2023/01/15 07:03:21;;;;;;;17.23;1.92;;;6.60;99.90;;;;;;5050294;28;20808;-83
2023/01/15 07:05:46;;;;;;;12.55;1.42;;;6.00;99.90;;;;;;5011636;28;20045;-83
2023/01/15 07:08:12;;;;;;;12.23;1.73;;;6.50;99.90;;;;;;5033189;28;20041;-83
2023/01/15 07:10:38;;;;;;;11.05;1.52;;;5.10;99.90;;;;;;5041471;28;20044;-83
2023/01/15 07:13:03;;;;;;;11.85;1.63;;;5.10;99.90;;;;;;5033044;28;20047;-84
2023/01/15 07:15:30;;;;;;;14.40;3.15;;;6.60;99.90;;;;;;5014831;28;20045;-83
2023/01/15 07:17:56;;;;;;;14.38;2.58;;;5.10;99.90;;;;;;5050373;28;20487;-85
2023/01/15 07:20:22;;;;;;;15.70;1.70;;;5.20;99.90;;;;;;5043057;28;20102;-88
2023/01/15 07:22:49;;;;;;;12.35;1.58;;;5.20;99.90;;;;;;5011243;28;20412;-87
2023/01/15 07:25:15;;;;;;;9.50;1.85;;;5.40;99.90;;;;;;5031316;28;20391;-84
2023/01/15 07:27:41;;;;;;;13.40;1.60;;;5.40;99.90;;;;;;5051265;28;20044;-86
2023/01/15 07:30:07;;;;;;;13.23;1.55;;;6.90;99.90;;;;;;5043619;28;20041;-87
2023/01/15 07:32:33;;;;;;;10.77;1.00;;;5.20;99.90;;;;;;5032285;28;20690;-86
2023/01/15 07:34:58;;;;;;;14.27;2.33;;;5.70;99.90;;;;;;5023454;28;20033;-84
2023/01/15 07:37:24;;;;;;;13.98;1.80;;;5.20;99.90;;;;;;5016299;28;20041;-84
2023/01/15 07:39:50;;;;;;;10.40;1.20;;;5.20;99.90;;;;;;5031897;28;20053;-84
2023/01/15 07:50:37;;;;;;;11.95;1.90;;;5.60;99.90;;;;;;5051018;28;20057;-87
2023/01/15 07:53:20;;;;;;;7.20;1.45;;;5.30;99.90;;;;;;5014110;28;20044;-88
2023/01/15 07:55:55;;;;;;;12.38;1.13;;;4.30;99.90;;;;;;5013478;28;20048;-86
2023/01/15 07:58:20;;;;;;;11.05;1.33;;;7.00;99.90;;;;;;5004352;28;20037;-84
2023/01/15 08:00:46;;;;;;;8.45;1.38;;;5.20;99.90;;;;;;5033594;28;20102;-85
2023/01/15 08:03:12;;;;;;;6.88;1.65;;;5.20;99.90;;;;;;5017825;28;20113;-87
2023/01/15 08:05:37;;;;;;;7.93;1.23;;;5.10;99.90;;;;;;5018389;28;20124;-87
2023/01/15 08:08:04;;;;;;;8.85;1.60;;;5.50;99.90;;;;;;5035977;28;20045;-85
2023/01/15 08:10:29;;;;;;;10.57;1.33;;;5.30;99.90;;;;;;5032693;28;20044;-86
2023/01/15 08:15:41;;;;;;;15.90;1.85;;;5.30;99.90;;;;;;5042841;28;20044;-85
2023/01/15 08:18:07;;;;;;;16.83;2.13;;;;;;;;;;5012955;28;20044;-86
2023/01/15 08:20:34;;;;;;;6.95;1.50;;;5.30;99.90;;;;;;5012183;28;20057;-86
2023/01/15 08:23:00;;;;;;;11.55;1.23;;;6.50;99.90;;;;;;5030675;28;20037;-86
2023/01/15 08:25:26;;;;;;;8.73;1.50;;;5.50;99.90;;;;;;4315091;28;10000743;-86
2023/01/15 08:27:52;;;;;;;12.88;2.10;;;6.90;99.90;;;;;;5011387;28;20049;-85
2023/01/15 08:30:22;;;;;;;14.13;1.58;;;7.60;99.90;;;;;;5029007;28;20040;-86
2023/01/15 08:32:48;;;;;;;14.07;1.55;;;5.40;99.90;;;;;;5006030;28;20414;-87
2023/01/15 08:35:14;;;;;;;9.18;0.93;;;6.80;99.90;;;;;;5009519;28;20045;-85
2023/01/15 08:37:40;;;;;;;11.85;1.58;;;5.30;99.90;;;;;;5005358;28;20057;-84
2023/01/15 08:40:07;;;;;;;12.07;1.52;;;6.30;99.90;;;;;;5032651;28;20066;-84
2023/01/15 08:42:34;;;;;;;6.55;1.95;;;5.30;99.90;;;;;;5021311;28;20514;-85
2023/01/15 08:44:59;;;;;;;8.75;1.35;;;5.40;99.90;;;;;;5036939;28;20115;-83
2023/01/15 08:47:33;;;;;;;9.98;1.58;;;5.20;99.90;;;;;;5001708;28;20073;-85
2023/01/15 08:49:58;;;;;;;14.75;2.42;;;5.80;99.90;;;;;;4973827;28;20052;-85
2023/01/15 08:52:26;;;;;;;9.20;1.92;;;7.20;99.90;;;;;;5037876;28;20041;-86
2023/01/15 08:54:52;;;;;;;6.00;0.98;;;;;;;;;;4974284;28;20052;-86
2023/01/15 08:57:20;;;;;;;7.72;1.00;;;5.20;99.90;;;;;;5021394;28;20049;-84
2023/01/15 08:59:46;;;;;;;8.32;1.30;;;7.20;99.90;;;;;;5007826;28;20037;-84
2023/01/15 09:02:13;;;;;;;8.20;1.73;;;7.20;99.90;;;;;;5028166;28;20048;-83
2023/01/15 09:04:39;;;;;;;11.35;2.90;;;5.40;99.90;;;;;;5026002;28;20090;-84
2023/01/15 09:07:05;;;;;;;11.30;1.73;;;5.20;99.90;;;;;;5011235;28;20037;-83
2023/01/15 09:09:32;;;;;;;9.18;1.00;;;4.60;99.90;;;;;;5024088;28;20037;-83
2023/01/15 09:11:57;;;;;;;7.90;1.05;;;5.30;99.90;;;;;;5003270;28;20102;-86
2023/01/15 09:14:23;;;;;;;11.93;1.02;;;7.20;99.90;;;;;;5002521;28;20037;-85
2023/01/15 09:16:49;;;;;;;11.60;1.10;;;6.80;99.90;;;;;;5036938;28;20507;-86
2023/01/15 09:19:14;;;;;;;13.25;1.70;;;7.20;99.90;;;;;;5042538;28;20053;-84
2023/01/15 09:21:40;;;;;;;12.02;1.77;;;7.10;99.90;;;;;;5026831;28;20052;-84
2023/01/15 09:24:06;;;;;;;5.40;1.45;;;6.70;99.90;;;;;;5043685;28;20037;-84
2023/01/15 09:26:36;;;;;;;14.07;1.65;;;5.20;99.90;;;;;;5019840;28;20044;-86
2023/01/15 09:29:03;;;;;;;9.82;2.38;;;5.30;99.90;;;;;;5024515;28;20036;-84
2023/01/15 09:31:32;;;;;;;10.38;1.02;;;5.40;99.90;;;;;;5025834;28;20044;-86
2023/01/15 09:33:58;;;;;;;13.35;1.90;;;7.20;99.90;;;;;;5007062;28;20404;-85
2023/01/15 09:36:28;;;;;;;9.70;1.85;;;5.50;99.90;;;;;;5004476;28;20510;-85
2023/01/15 09:38:58;;;;;;;10.25;1.30;;;5.80;99.90;;;;;;5009684;28;20043;-83
2023/01/15 09:44:38;;;;;;;10.35;1.60;;;7.50;99.90;;;;;;5024500;28;20471;-86
2023/01/15 09:47:41;;;;;;;7.07;0.82;;;5.60;99.90;;;;;;5011191;28;20041;-84
2023/01/15 09:50:44;;;;;;;9.20;1.45;;;6.90;99.90;;;;;;5024993;28;20052;-85
2023/01/15 09:53:31;;;;;;;8.10;1.25;;;5.70;99.90;;;;;;5015336;28;20144;-86
2023/01/15 09:55:58;;;;;;;8.88;1.48;;;5.70;99.90;;;;;;5019990;28;20073;-85
2023/01/15 09:58:34;;;;;;;8.60;1.77;;;5.60;99.90;;;;;;5011299;28;20045;-83
2023/01/15 10:01:00;;;;;;;11.73;1.73;;;6.90;99.90;;;;;;5008476;28;20623;-83
2023/01/15 10:03:39;;;;;;;8.63;1.23;;;7.70;99.90;;;;;;5007252;28;20083;-83
2023/01/15 10:06:12;;;;;;;15.15;2.45;;;5.80;99.90;;;;;;5006428;28;20049;-84
2023/01/15 10:08:46;;;;;;;16.02;2.78;;;6.00;99.90;;;;;;5021482;28;20049;-85
2023/01/15 10:11:15;;;;;;;17.58;2.92;;;6.00;99.90;;;;;;5026093;28;20144;-83
2023/01/15 10:13:48;;;;;;;11.10;1.00;;;6.20;99.90;;;;;;5024780;28;20737;-84
2023/01/15 10:16:26;;;;;;;11.75;1.48;;;6.20;99.90;;;;;;5013085;28;20048;-84
2023/01/15 10:18:53;;;;;;;7.50;0.93;;;6.30;99.90;;;;;;5009734;28;20056;-85
2023/01/15 10:21:50;;;;;;;7.70;1.30;;;6.40;99.90;;;;;;5022443;28;20052;-84
2023/01/15 10:24:25;;;;;;;14.20;2.08;;;6.50;99.90;;;;;;5024471;28;20049;-82
2023/01/15 10:27:02;;;;;;;19.33;1.73;;;6.70;99.90;;;;;;5027495;28;20089;-84
2023/01/15 10:29:35;;;;;;;12.75;2.65;;;6.50;99.90;;;;;;5037006;28;20202;-84
2023/01/15 10:32:22;;;;;;;7.80;1.40;;;6.50;99.90;;;;;;5009972;28;20064;-83
2023/01/15 10:35:07;;;;;;;7.63;1.52;;;6.50;99.90;;;;;;5024125;28;20156;-86
2023/01/15 10:37:40;;;;;;;11.10;1.50;;;7.50;99.90;;;;;;5039946;28;20048;-86
2023/01/15 10:40:28;;;;;;;9.90;1.30;;;6.60;99.90;;;;;;5011676;28;20045;-89
2023/01/15 10:43:00;;;;;;;14.20;2.03;;;6.70;99.90;;;;;;5020285;28;20500;-84
2023/01/15 10:45:40;;;;;;;12.77;1.20;;;7.90;99.90;;;;;;5003787;28;20142;-87
2023/01/15 10:48:36;;;;;;;12.52;1.70;;;6.80;99.90;;;;;;5022023;28;20500;-86
2023/01/15 10:51:15;;;;;;;7.50;1.20;;;6.70;99.90;;;;;;5027069;28;20909;-87
2023/01/15 10:53:46;;;;;;;12.13;2.08;;;7.10;99.90;;;;;;5007119;28;20144;-87
2023/01/15 10:56:19;;;;;;;17.02;2.30;;;7.00;99.90;;;;;;5027031;28;20508;-84
2023/01/15 10:59:04;;;;;;;6.53;1.38;;;6.70;99.90;;;;;;5014354;28;20064;-83
2023/01/15 11:01:30;;;;;;;7.10;1.17;;;6.70;99.90;;;;;;5033996;28;20120;-84
2023/01/15 11:03:55;;;;;;;16.15;2.63;;;7.70;99.90;;;;;;5044257;28;20033;-83
2023/01/15 11:06:26;;;;;;;7.55;1.48;;;6.70;99.90;;;;;;5044136;28;20592;-85
2023/01/15 11:08:54;;;;;;;8.75;1.25;;;6.80;99.90;;;;;;5009863;28;20048;-85
2023/01/15 11:20:30;;;;;;;10.00;1.20;;;7.80;99.90;;;;;;5022817;28;20061;-85
2023/01/15 11:23:14;;;;;;;6.95;1.30;;;7.10;99.90;;;;;;5042701;28;20045;-85
2023/01/15 11:25:48;;;;;;;9.50;1.20;;;7.10;99.90;;;;;;5042244;28;20110;-87
2023/01/15 11:28:14;;;;;;;14.85;2.85;;;7.20;99.90;;;;;;4996037;28;20056;-86
2023/01/15 11:30:41;;;;;;;11.80;1.95;;;7.10;99.90;;;;;;5025039;28;20080;-86
2023/01/15 11:33:25;;;;;;;13.77;2.10;;;7.10;99.90;;;;;;5025825;28;20045;-83
2023/01/15 11:35:58;;;;;;;8.40;1.50;;;7.00;99.90;;;;;;5025907;28;20068;-89
2023/01/15 11:38:41;;;;;;;11.48;1.52;;;8.60;99.90;;;;;;5039567;28;20339;-87
2023/01/15 11:52:56;;;;;;;8.73;1.90;;;7.90;99.90;;;;;;5026082;28;20801;-82
2023/01/15 11:55:27;;;;;;;21.92;1.73;;;6.80;99.90;;;;;;5027925;28;20380;-85
2023/01/15 11:57:55;;;;;;;13.13;1.92;;;7.00;99.90;;;;;;5025558;28;20092;-83
2023/01/15 12:00:27;;;;;;;11.07;1.27;;;6.90;99.90;;;;;;5024715;28;20057;-82
2023/01/15 12:03:24;;;;;;;12.23;2.25;;;7.00;99.90;;;;;;5024801;28;20041;-82
2023/01/15 12:06:04;;;;;;;11.00;1.42;;;7.00;99.90;;;;;;5016237;28;20055;-82
2023/01/15 12:08:52;;;;;;;17.25;2.03;;;7.10;99.90;;;;;;5040434;28;20040;-81
2023/01/15 12:11:48;;;;;;;13.82;2.60;;;7.00;99.90;;;;;;5008285;28;20128;-81
2023/01/15 12:14:29;;;;;;;14.32;2.53;;;6.90;99.90;;;;;;5019293;28;20045;-81
2023/01/15 12:17:20;;;;;;;15.93;2.78;;;6.80;99.90;;;;;;5036642;28;20396;-80
2023/01/15 12:20:17;;;;;;;15.63;3.15;;;6.80;99.90;;;;;;5019649;28;20127;-82
2023/01/15 12:23:07;;;;;;;12.00;1.77;;;6.80;99.90;;;;;;5023554;28;20068;-82
2023/01/15 12:25:45;;;;;;;16.88;2.00;;;6.80;99.90;;;;;;5014746;28;20044;-82
2023/01/15 12:28:16;;;;;;;15.88;2.00;;;6.80;99.90;;;;;;5020776;28;20052;-82
2023/01/15 12:30:53;;;;;;;17.65;2.20;;;6.80;99.90;;;;;;5024202;28;20496;-81
2023/01/15 12:33:35;;;;;;;12.85;2.03;;;6.80;99.90;;;;;;5023145;28;20198;-80
2023/01/15 12:36:07;;;;;;;9.65;0.85;;;6.80;99.90;;;;;;5017318;28;20131;-80
2023/01/15 12:39:00;;;;;;;10.00;1.60;;;6.60;99.90;;;;;;5021429;28;20048;-85
2023/01/15 12:47:24;;;;;;;14.07;4.72;;;5.80;99.90;;;;;;5016770;28;20049;-83
2023/01/15 12:50:03;;;;;;;10.77;4.53;;;5.40;99.90;;;;;;5004591;28;20042;-85
2023/01/15 12:52:35;;;;;;;13.98;1.25;;;5.30;99.90;;;;;;5026385;28;20380;-89
2023/01/15 12:55:21;;;;;;;6.57;1.20;;;4.80;99.90;;;;;;5022324;28;20041;-83
2023/01/15 12:57:55;;;;;;;8.48;0.88;;;5.30;99.90;;;;;;5006383;28;20172;-86
2023/01/15 13:00:28;;;;;;;8.60;1.70;;;5.20;99.90;;;;;;5019973;28;20095;-81
2023/01/15 13:03:12;;;;;;;5.93;1.35;;;5.20;99.90;;;;;;5000210;28;20053;-85
2023/01/15 13:05:52;;;;;;;4.70;0.80;;;5.30;99.90;;;;;;4995617;28;20096;-85
2023/01/15 13:08:37;;;;;;;5.85;0.77;;;5.20;99.90;;;;;;5017923;28;20049;-83
2023/01/15 13:11:03;;;;;;;2.08;0.43;;;5.10;99.90;;;;;;5023527;28;20079;-84
2023/01/15 13:13:33;;;;;;;5.40;0.85;;;4.70;99.90;;;;;;5020172;28;20073;-83
2023/01/15 13:16:19;;;;;;;4.65;2.10;;;6.60;99.90;;;;;;5022023;28;20377;-81
2023/01/15 13:18:54;;;;;;;9.93;3.05;;;5.10;99.90;;;;;;5022629;28;20072;-84
2023/01/15 13:21:20;;;;;;;3.42;0.30;;;5.20;99.90;;;;;;5024268;28;20132;-82
2023/01/15 13:24:15;;;;;;;2.55;0.35;;;7.10;99.90;;;;;;5037978;28;20072;-82
2023/01/15 13:27:15;;;;;;;1.42;0.10;;;5.20;99.90;;;;;;5036874;28;20045;-82
2023/01/15 13:30:18;;;;;;;3.17;0.55;;;5.10;99.90;;;;;;5022504;28;20053;-85
2023/01/15 13:33:11;;;;;;;3.70;0.70;;;5.10;99.90;;;;;;5022004;28;20136;-86
2023/01/15 13:35:47;;;;;;;6.85;0.75;;;4.70;99.90;;;;;;5036555;28;20052;-84
2023/01/15 13:38:26;;;;;;;5.53;1.05;;;3.80;99.90;;;;;;5023110;28;20044;-86
2023/01/15 13:40:55;;;;;;;7.00;0.50;;;5.60;99.90;;;;;;5039872;28;20374;-87
2023/01/15 13:43:30;;;;;;;5.80;0.95;;;4.70;99.90;;;;;;5010026;28;20049;-83
2023/01/15 13:45:56;;;;;;;8.23;1.13;;;7.00;99.90;;;;;;5028270;28;20872;-83
2023/01/15 13:48:42;;;;;;;8.10;2.03;;;7.20;99.90;;;;;;5018953;28;20142;-82
2023/01/15 13:51:24;;;;;;;6.45;1.27;;;5.20;99.90;;;;;;5018490;28;20435;-83
2023/01/15 13:53:50;;;;;;;10.18;1.38;;;7.00;99.90;;;;;;5021073;28;20069;-83
2023/01/15 13:56:26;;;;;;;8.32;1.50;;;6.10;99.90;;;;;;5043470;28;20079;-83
2023/01/15 13:59:01;;;;;;;10.10;1.92;;;5.20;99.90;;;;;;5005689;28;20447;-82
2023/01/15 14:01:30;;;;;;;5.28;1.35;;;5.20;99.90;;;;;;5024133;28;20608;-84
2023/01/15 14:04:07;;;;;;;13.75;4.10;;;6.60;99.90;;;;;;5004482;28;20077;-83
2023/01/15 14:06:44;;;;;;;15.32;2.03;;;5.20;99.90;;;;;;5022366;28;20033;-82